Time;durP1;ratioP1;P1;durP2;ratioP2;P2;SDS_P1;SDS_P2;PMS_P1;PMS_P2;Temp;Humidity;BMP_temperature;BMP_pressure;BME280_temperature;BME280_humidity;BME280_pressure;Samples;Min_cycle;Max_cycle;Signal;HPM_P1;HPM_P2
2021/12/03 00:00:36;;;;;;;4.28;2.97;;;3.50;99.90;;;;;;6253095;23;20153;-57
2021/12/03 00:03:02;;;;;;;3.38;3.00;;;3.60;99.90;;;;;;6253378;22;20200;-57
2021/12/03 00:05:28;;;;;;;3.42;3.13;;;3.40;99.90;;;;;;6253970;23;20502;-57
2021/12/03 00:07:54;;;;;;;4.10;3.50;;;3.10;99.90;;;;;;6252995;23;20569;-57
2021/12/03 00:10:25;;;;;;;4.50;3.50;;;3.60;99.90;;;;;;6215438;23;20388;-57
2021/12/03 00:12:51;;;;;;;3.38;3.08;;;3.40;99.90;;;;;;6216121;23;20218;-57
2021/12/03 00:15:17;;;;;;;4.07;3.33;;;3.40;99.90;;;;;;6253469;23;20152;-56
2021/12/03 00:17:43;;;;;;;3.53;3.22;;;3.30;99.90;;;;;;6252887;23;20232;-56
2021/12/03 00:20:13;;;;;;;3.37;2.90;;;3.20;99.90;;;;;;6253347;23;20188;-57
2021/12/03 00:22:44;;;;;;;4.30;3.33;;;3.50;99.90;;;;;;6253657;22;20485;-57
2021/12/03 00:25:09;;;;;;;4.25;3.80;;;3.60;99.90;;;;;;6253764;23;20223;-57
2021/12/03 00:27:35;;;;;;;3.80;3.37;;;3.10;99.90;;;;;;6253885;23;20627;-57
2021/12/03 00:30:02;;;;;;;6.05;3.85;;;3.20;99.90;;;;;;6253780;23;20858;-56
2021/12/03 00:32:28;;;;;;;3.75;3.15;;;3.20;99.90;;;;;;6252774;22;20178;-56
2021/12/03 00:34:53;;;;;;;6.33;3.80;;;3.30;99.90;;;;;;6253551;23;20214;-56
2021/12/03 00:37:19;;;;;;;4.37;3.97;;;3.00;99.90;;;;;;6253385;23;20171;-56
2021/12/03 00:39:44;;;;;;;5.73;3.90;;;3.00;99.90;;;;;;6253255;23;20149;-56
2021/12/03 00:42:15;;;;;;;4.30;3.60;;;2.90;99.90;;;;;;6253644;22;20232;-56
2021/12/03 00:44:40;;;;;;;4.03;3.63;;;3.30;99.90;;;;;;6252558;23;20152;-56
2021/12/03 00:47:06;;;;;;;5.63;4.10;;;2.90;99.90;;;;;;6252929;23;20592;-57
2021/12/03 00:49:32;;;;;;;7.20;4.87;;;2.60;99.90;;;;;;6253025;23;20228;-56
2021/12/03 00:51:58;;;;;;;4.70;4.20;;;2.70;99.90;;;;;;6252505;23;20411;-56
2021/12/03 00:54:23;;;;;;;6.20;4.60;;;2.80;99.90;;;;;;6251095;22;20169;-56
2021/12/03 00:56:49;;;;;;;7.10;4.20;;;2.70;99.90;;;;;;6252257;23;20214;-56
2021/12/03 00:59:15;;;;;;;5.03;4.50;;;2.90;99.90;;;;;;6251418;23;20604;-56
2021/12/03 01:01:40;;;;;;;6.33;4.60;;;2.40;99.90;;;;;;6252294;23;20149;-56
2021/12/03 01:04:07;;;;;;;5.67;4.50;;;2.60;99.90;;;;;;6214321;23;20416;-56
2021/12/03 01:06:33;;;;;;;6.22;5.50;;;2.30;99.90;;;;;;6252557;23;20545;-56
2021/12/03 01:08:58;;;;;;;6.43;4.70;;;2.80;99.90;;;;;;6252895;23;20181;-57
2021/12/03 01:11:24;;;;;;;6.20;4.50;;;2.70;99.90;;;;;;6252793;23;20149;-57
2021/12/03 01:13:51;;;;;;;5.43;4.33;;;2.90;99.90;;;;;;6253156;22;20192;-57
2021/12/03 01:16:17;;;;;;;4.47;3.80;;;2.80;99.90;;;;;;6252359;23;20666;-56
2021/12/03 01:18:45;;;;;;;6.03;4.72;;;2.00;99.90;;;;;;6214177;23;20165;-57
2021/12/03 01:21:11;;;;;;;5.75;5.25;;;2.80;99.90;;;;;;6252488;23;20160;-57
2021/12/03 01:23:38;;;;;;;6.22;4.53;;;2.30;99.90;;;;;;6241316;22;20563;-56
2021/12/03 01:26:03;;;;;;;5.05;4.55;;;2.50;99.90;;;;;;6252191;23;20215;-56
2021/12/03 01:28:30;;;;;;;7.23;4.57;;;2.80;99.90;;;;;;6252808;23;20508;-56
2021/12/03 01:30:57;;;;;;;6.72;5.00;;;3.00;99.90;;;;;;6253398;23;20380;-56
2021/12/03 01:33:23;;;;;;;6.22;4.60;;;2.90;99.90;;;;;;6252652;22;20173;-56
2021/12/03 01:35:48;;;;;;;5.27;4.60;;;3.00;99.90;;;;;;6252296;23;20259;-56
2021/12/03 01:38:14;;;;;;;6.20;4.43;;;3.10;99.90;;;;;;6251198;23;20463;-56
2021/12/03 01:40:41;;;;;;;7.17;5.70;;;2.20;99.90;;;;;;6250531;23;20532;-56
2021/12/03 01:43:09;;;;;;;6.38;4.72;;;3.00;99.90;;;;;;6252708;22;20399;-56
2021/12/03 01:45:37;;;;;;;8.05;4.75;;;3.10;99.90;;;;;;6252834;23;20231;-56
2021/12/03 01:48:04;;;;;;;6.50;4.97;;;3.50;99.90;;;;;;6252324;23;20702;-56
2021/12/03 01:50:40;;;;;;;5.93;4.78;;;3.10;99.90;;;;;;6252407;23;20191;-56
2021/12/03 01:53:07;;;;;;;4.60;3.70;;;3.10;99.90;;;;;;6242343;22;20173;-57
2021/12/03 01:55:34;;;;;;;9.18;4.72;;;2.90;99.90;;;;;;6252582;23;20391;-56
2021/12/03 01:58:00;;;;;;;9.40;4.90;;;3.20;99.90;;;;;;6250976;23;20200;-56
2021/12/03 02:00:39;;;;;;;7.13;5.40;;;2.90;99.90;;;;;;6251108;23;20184;-56
2021/12/03 02:03:06;;;;;;;5.97;4.45;;;3.00;99.90;;;;;;6241905;22;20437;-56
2021/12/03 02:05:33;;;;;;;5.47;4.82;;;2.30;99.90;;;;;;6253271;23;20160;-56
2021/12/03 02:07:58;;;;;;;7.22;4.35;;;2.60;99.90;;;;;;6241648;23;20416;-56
2021/12/03 02:10:25;;;;;;;5.80;4.67;;;2.60;99.90;;;;;;6251949;23;20157;-56
2021/12/03 02:12:51;;;;;;;5.25;4.75;;;2.80;99.90;;;;;;6251674;22;20215;-56
2021/12/03 02:15:18;;;;;;;7.35;4.78;;;2.70;99.90;;;;;;6251909;23;20149;-56
2021/12/03 02:17:44;;;;;;;5.82;5.22;;;2.70;99.90;;;;;;6251623;23;20146;-56
2021/12/03 02:20:12;;;;;;;6.37;5.20;;;2.40;99.90;;;;;;6251217;23;20749;-56
2021/12/03 02:22:38;;;;;;;6.90;5.20;;;2.70;99.90;;;;;;6252103;22;20403;-57
2021/12/03 02:25:10;;;;;;;8.73;5.15;;;2.70;99.90;;;;;;6251298;23;20161;-56
2021/12/03 02:27:36;;;;;;;6.90;5.75;;;2.60;99.90;;;;;;6252647;23;20466;-56
2021/12/03 02:30:05;;;;;;;6.03;4.90;;;2.40;99.90;;;;;;6241845;23;20157;-56
2021/12/03 02:32:31;;;;;;;7.07;5.18;;;2.70;99.90;;;;;;6251776;22;20169;-56
2021/12/03 02:34:56;;;;;;;8.90;4.57;;;1.80;99.90;;;;;;6214339;23;20164;-56
2021/12/03 02:37:22;;;;;;;5.67;4.90;;;2.60;99.90;;;;;;6250694;23;20715;-56
2021/12/03 02:39:48;;;;;;;6.40;4.90;;;2.60;99.90;;;;;;6252761;23;20157;-56
2021/12/03 02:42:13;;;;;;;7.23;5.03;;;2.60;99.90;;;;;;6254289;22;20149;-56
2021/12/03 02:44:39;;;;;;;5.17;4.67;;;2.80;99.90;;;;;;6253387;23;20177;-56
2021/12/03 02:47:05;;;;;;;9.00;4.70;;;2.60;99.90;;;;;;6254184;23;20391;-56
2021/12/03 02:49:35;;;;;;;5.70;5.00;;;2.50;99.90;;;;;;6254125;23;20206;-56
2021/12/03 02:52:01;;;;;;;7.40;5.60;;;2.20;99.90;;;;;;6254311;22;20175;-56
2021/12/03 02:54:27;;;;;;;7.13;4.97;;;2.80;99.90;;;;;;6254141;23;20157;-57
2021/12/03 02:56:52;;;;;;;7.17;5.40;;;2.40;99.90;;;;;;6254424;23;20145;-57
2021/12/03 02:59:18;;;;;;;6.70;5.17;;;2.50;99.90;;;;;;6253590;23;20228;-56
2021/12/03 03:01:44;;;;;;;6.47;5.10;;;2.60;99.90;;;;;;6253648;23;20157;-56
2021/12/03 03:04:10;;;;;;;6.65;5.20;;;2.60;99.90;;;;;;6252695;22;20808;-56
2021/12/03 03:06:36;;;;;;;6.10;5.50;;;2.40;99.90;;;;;;6216793;23;20157;-56
2021/12/03 03:09:08;;;;;;;7.47;5.53;;;2.60;99.90;;;;;;6254119;23;20445;-56
2021/12/03 03:11:34;;;;;;;6.20;5.53;;;2.20;99.90;;;;;;6253744;23;20133;-56
2021/12/03 03:14:00;;;;;;;7.80;6.18;;;1.60;99.90;;;;;;6252772;22;20624;-56
2021/12/03 03:16:26;;;;;;;7.20;6.15;;;1.70;99.90;;;;;;6253616;23;20663;-56
2021/12/03 03:18:52;;;;;;;7.13;5.18;;;2.10;99.90;;;;;;6241983;23;20168;-56
2021/12/03 03:21:18;;;;;;;6.33;5.00;;;2.00;99.90;;;;;;6253438;23;20521;-56
2021/12/03 03:23:44;;;;;;;7.45;5.38;;;2.10;99.90;;;;;;6253118;22;20714;-56
2021/12/03 03:26:10;;;;;;;6.93;5.07;;;2.10;99.90;;;;;;6253767;23;20176;-56
2021/12/03 03:28:37;;;;;;;8.20;6.23;;;2.30;99.90;;;;;;6254001;23;20688;-56
2021/12/03 03:31:03;;;;;;;5.88;4.80;;;1.90;99.90;;;;;;6254147;23;20403;-56
2021/12/03 03:33:29;;;;;;;6.20;5.38;;;2.30;99.90;;;;;;6243487;22;20181;-56
2021/12/03 03:35:55;;;;;;;7.28;5.90;;;2.40;99.90;;;;;;6243873;23;20161;-55
2021/12/03 03:38:21;;;;;;;7.70;6.13;;;2.50;99.90;;;;;;6252521;23;20481;-56
2021/12/03 03:40:47;;;;;;;8.07;5.43;;;2.40;99.90;;;;;;6252191;23;20384;-56
2021/12/03 03:43:14;;;;;;;5.57;4.65;;;2.40;99.90;;;;;;6251993;22;20411;-56
2021/12/03 03:45:41;;;;;;;6.78;5.70;;;2.30;99.90;;;;;;6253885;23;20531;-56
2021/12/03 03:48:08;;;;;;;7.07;5.88;;;2.40;99.90;;;;;;6253889;23;20187;-56
2021/12/03 03:50:34;;;;;;;8.07;5.80;;;2.40;99.90;;;;;;6252918;23;20150;-57
2021/12/03 03:53:01;;;;;;;6.40;5.70;;;1.90;99.90;;;;;;6252132;22;20248;-56
2021/12/03 03:55:28;;;;;;;6.28;5.30;;;2.20;99.90;;;;;;6253171;23;20467;-56
2021/12/03 03:57:57;;;;;;;5.90;4.53;;;2.20;99.90;;;;;;6251875;23;20173;-57
2021/12/03 04:00:31;;;;;;;6.80;5.68;;;1.80;99.90;;;;;;6252232;23;20827;-56
2021/12/03 04:02:57;;;;;;;8.65;6.10;;;2.50;99.90;;;;;;6253192;22;20195;-57
2021/12/03 04:05:23;;;;;;;7.30;5.80;;;2.60;99.90;;;;;;6254032;23;20161;-57
2021/12/03 04:07:48;;;;;;;7.53;5.70;;;2.70;99.90;;;;;;6253366;23;20184;-56
2021/12/03 04:10:14;;;;;;;5.70;5.10;;;2.90;99.90;;;;;;6253848;23;20406;-56
2021/12/03 04:12:40;;;;;;;8.07;5.80;;;2.60;99.90;;;;;;6251195;22;20215;-56
2021/12/03 04:15:08;;;;;;;7.95;5.72;;;2.40;99.90;;;;;;6254121;23;20155;-57
2021/12/03 04:17:34;;;;;;;9.13;5.60;;;2.60;99.90;;;;;;6253006;23;20549;-56
2021/12/03 04:20:00;;;;;;;7.20;5.97;;;2.60;99.90;;;;;;6252872;23;20180;-57
2021/12/03 04:22:26;;;;;;;6.53;5.57;;;2.20;99.90;;;;;;6241853;22;20403;-56
2021/12/03 04:24:54;;;;;;;6.65;5.65;;;2.80;99.90;;;;;;6253033;23;20153;-56
2021/12/03 04:27:20;;;;;;;7.47;5.80;;;2.50;99.90;;;;;;6216350;23;20486;-57
2021/12/03 04:29:47;;;;;;;7.03;5.70;;;2.80;99.90;;;;;;6243044;23;20228;-56
2021/12/03 04:32:14;;;;;;;7.70;5.88;;;2.70;99.90;;;;;;6252752;22;20408;-57
2021/12/03 04:34:40;;;;;;;7.03;6.10;;;2.30;99.90;;;;;;6253722;23;20203;-56
2021/12/03 04:37:06;;;;;;;8.43;6.37;;;2.90;99.90;;;;;;6252810;23;20648;-56
2021/12/03 04:39:32;;;;;;;7.17;6.00;;;3.10;99.90;;;;;;6251598;23;20216;-56
2021/12/03 04:41:58;;;;;;;9.05;5.93;;;2.40;99.90;;;;;;6252696;23;20148;-56
2021/12/03 04:44:23;;;;;;;8.50;6.50;;;2.70;99.90;;;;;;6253471;22;20184;-56
2021/12/03 04:46:49;;;;;;;7.30;6.10;;;2.70;99.90;;;;;;6242866;23;20187;-56
2021/12/03 04:49:15;;;;;;;7.37;5.83;;;2.70;99.90;;;;;;6253394;23;20173;-56
2021/12/03 04:51:41;;;;;;;8.03;5.97;;;2.90;99.90;;;;;;6250536;23;20188;-56
2021/12/03 04:54:07;;;;;;;6.55;5.93;;;2.90;99.90;;;;;;6251799;22;20165;-56
2021/12/03 04:56:32;;;;;;;7.68;6.43;;;2.60;99.90;;;;;;6251913;23;20498;-56
2021/12/03 04:58:58;;;;;;;7.80;6.40;;;2.80;99.90;;;;;;6215225;23;20164;-56
2021/12/03 05:01:24;;;;;;;9.10;6.40;;;2.60;99.90;;;;;;6252107;23;20171;-56
2021/12/03 05:03:50;;;;;;;11.33;7.00;;;2.70;99.90;;;;;;6240820;22;20415;-56
2021/12/03 05:06:17;;;;;;;11.07;7.13;;;2.70;99.90;;;;;;6252528;23;20203;-56
2021/12/03 05:08:43;;;;;;;7.85;6.00;;;2.90;99.90;;;;;;6252423;23;20196;-56
2021/12/03 05:11:09;;;;;;;7.30;5.77;;;2.70;99.90;;;;;;6252627;23;20153;-56
2021/12/03 05:13:36;;;;;;;7.65;6.00;;;2.70;99.90;;;;;;6251365;22;20230;-55
2021/12/03 05:16:04;;;;;;;9.23;6.90;;;2.80;99.90;;;;;;6252677;23;20149;-56
2021/12/03 05:18:30;;;;;;;8.48;6.15;;;2.80;99.90;;;;;;6251079;23;20169;-56
2021/12/03 05:20:59;;;;;;;7.57;6.20;;;2.90;99.90;;;;;;6252712;23;20161;-56
2021/12/03 05:23:27;;;;;;;7.18;6.47;;;2.90;99.90;;;;;;6254903;22;20244;-56
2021/12/03 05:25:53;;;;;;;7.80;7.00;;;2.80;99.90;;;;;;6252699;23;20169;-56
2021/12/03 05:28:19;;;;;;;9.45;7.40;;;2.70;99.90;;;;;;6252345;23;20189;-56
2021/12/03 05:30:45;;;;;;;9.07;6.73;;;2.60;99.90;;;;;;6252822;23;20177;-56
2021/12/03 05:33:12;;;;;;;8.90;6.30;;;3.00;99.90;;;;;;6241553;22;20177;-57
2021/12/03 05:35:37;;;;;;;7.53;6.70;;;2.20;99.90;;;;;;6242060;23;20392;-57
2021/12/03 05:38:03;;;;;;;6.33;5.70;;;2.20;99.90;;;;;;6252613;23;20179;-57
2021/12/03 05:40:31;;;;;;;7.77;7.00;;;2.40;99.90;;;;;;6252018;23;20196;-55
2021/12/03 05:42:57;;;;;;;7.95;6.28;;;2.30;99.90;;;;;;6252205;22;20792;-56
2021/12/03 05:45:26;;;;;;;9.77;6.00;;;2.80;99.90;;;;;;6252056;23;20156;-56
2021/12/03 05:47:52;;;;;;;10.82;6.70;;;2.90;99.90;;;;;;6251322;23;20181;-56
2021/12/03 05:50:19;;;;;;;9.52;7.20;;;2.30;99.90;;;;;;6252625;23;20206;-56
2021/12/03 05:52:48;;;;;;;7.63;6.03;;;2.70;99.90;;;;;;6252637;22;20562;-55
2021/12/03 05:55:15;;;;;;;8.15;7.35;;;2.20;99.90;;;;;;6241851;23;20160;-56
2021/12/03 05:57:42;;;;;;;9.23;7.53;;;2.80;99.90;;;;;;6252417;23;20231;-55
2021/12/03 06:00:14;;;;;;;9.60;7.20;;;2.90;99.90;;;;;;6252396;23;20161;-56
2021/12/03 06:02:40;;;;;;;8.40;7.00;;;3.00;99.90;;;;;;6250496;22;20215;-56
2021/12/03 06:05:06;;;;;;;8.07;6.73;;;2.40;99.90;;;;;;6252274;23;20149;-56
2021/12/03 06:07:32;;;;;;;10.65;7.05;;;3.10;99.90;;;;;;6252412;23;20388;-56
2021/12/03 06:09:58;;;;;;;8.95;7.25;;;2.80;99.90;;;;;;6252485;23;20180;-56
2021/12/03 06:12:24;;;;;;;9.13;7.47;;;2.90;99.90;;;;;;6251475;22;20510;-57
2021/12/03 06:14:49;;;;;;;10.77;8.20;;;3.30;99.90;;;;;;6250568;23;20588;-56
2021/12/03 06:17:15;;;;;;;9.37;7.07;;;2.80;99.90;;;;;;6251363;23;20154;-56
2021/12/03 06:19:42;;;;;;;9.73;7.83;;;2.80;99.90;;;;;;6252120;23;20154;-56
2021/12/03 06:22:08;;;;;;;7.85;6.95;;;3.20;99.90;;;;;;6252092;22;20446;-56
2021/12/03 06:24:35;;;;;;;11.32;7.80;;;2.90;99.90;;;;;;6251571;23;20631;-56
2021/12/03 06:27:00;;;;;;;8.82;7.25;;;3.20;99.90;;;;;;6251565;23;20173;-56
2021/12/03 06:29:26;;;;;;;10.27;7.87;;;2.30;99.90;;;;;;6250859;23;20649;-57
2021/12/03 06:31:52;;;;;;;7.97;6.50;;;2.90;99.90;;;;;;6252419;23;20185;-56
2021/12/03 06:34:17;;;;;;;10.57;7.77;;;3.10;99.90;;;;;;6250893;22;20176;-56
2021/12/03 06:36:43;;;;;;;10.20;7.80;;;2.50;99.90;;;;;;6251812;23;20145;-56
2021/12/03 06:39:09;;;;;;;12.13;7.97;;;2.90;99.90;;;;;;6251627;23;20235;-56
2021/12/03 06:41:34;;;;;;;9.80;7.90;;;3.10;99.90;;;;;;6251447;23;20477;-56
2021/12/03 06:44:00;;;;;;;12.00;9.37;;;3.00;99.90;;;;;;6252076;22;20251;-58
2021/12/03 06:46:26;;;;;;;10.93;8.10;;;2.60;99.90;;;;;;6252092;23;20184;-56
2021/12/03 06:48:51;;;;;;;8.47;7.53;;;2.90;99.90;;;;;;6251539;23;20235;-57
2021/12/03 06:51:17;;;;;;;8.70;7.13;;;2.20;99.90;;;;;;6252361;23;20150;-57
2021/12/03 06:53:47;;;;;;;8.80;7.13;;;2.40;99.90;;;;;;6248339;22;20165;-57
2021/12/03 06:56:21;;;;;;;10.60;7.75;;;2.40;99.90;;;;;;6250953;23;20387;-56
2021/12/03 06:58:47;;;;;;;9.95;7.35;;;2.80;99.90;;;;;;6251238;23;20141;-57
2021/12/03 07:01:13;;;;;;;9.82;7.38;;;2.60;99.90;;;;;;6251653;23;20157;-57
2021/12/03 07:03:38;;;;;;;8.90;6.63;;;2.80;99.90;;;;;;6251282;22;20219;-54
2021/12/03 07:06:04;;;;;;;9.53;7.70;;;2.40;99.90;;;;;;6251881;23;20622;-55
2021/12/03 07:08:30;;;;;;;8.87;7.23;;;2.30;99.90;;;;;;6251488;23;20540;-55
2021/12/03 07:10:55;;;;;;;10.50;7.67;;;2.50;99.90;;;;;;6251444;23;20145;-54
2021/12/03 07:13:21;;;;;;;9.60;8.00;;;2.40;99.90;;;;;;6251590;22;20674;-55
2021/12/03 07:15:47;;;;;;;9.23;6.67;;;2.50;99.90;;;;;;6251126;23;20146;-54
2021/12/03 07:18:12;;;;;;;9.67;8.07;;;2.00;99.90;;;;;;6251277;23;20387;-55
2021/12/03 07:20:38;;;;;;;9.63;6.90;;;2.50;99.90;;;;;;6251794;23;20477;-55
2021/12/03 07:23:04;;;;;;;9.63;7.63;;;2.40;99.90;;;;;;6251947;22;20536;-55
2021/12/03 07:25:29;;;;;;;8.73;6.90;;;2.10;99.90;;;;;;6251996;23;20215;-55
2021/12/03 07:27:55;;;;;;;9.93;8.40;;;2.20;99.90;;;;;;6253562;23;20187;-55
2021/12/03 07:30:22;;;;;;;10.17;8.13;;;2.00;99.90;;;;;;6252765;23;20652;-55
2021/12/03 07:32:48;;;;;;;8.77;6.82;;;2.10;99.90;;;;;;6253612;22;20479;-55
2021/12/03 07:35:14;;;;;;;10.40;7.93;;;2.00;99.90;;;;;;6253284;23;20150;-55
2021/12/03 07:37:43;;;;;;;8.45;7.32;;;2.10;99.90;;;;;;6252923;23;20159;-55
2021/12/03 07:40:10;;;;;;;9.95;7.38;;;1.50;99.90;;;;;;6253225;23;20156;-55
2021/12/03 07:42:36;;;;;;;9.48;7.15;;;2.30;99.90;;;;;;6242954;22;20169;-55
2021/12/03 07:45:06;;;;;;;10.33;8.10;;;2.30;99.90;;;;;;6252899;23;20483;-56
2021/12/03 07:47:31;;;;;;;10.63;8.30;;;2.30;99.90;;;;;;6252765;23;20744;-55
2021/12/03 07:49:57;;;;;;;8.63;7.00;;;2.40;99.90;;;;;;6252811;23;20149;-54
2021/12/03 07:52:24;;;;;;;9.83;8.20;;;2.10;99.90;;;;;;6252974;22;20299;-54
2021/12/03 07:54:50;;;;;;;10.23;7.75;;;2.00;99.90;;;;;;6253432;23;20245;-55
2021/12/03 07:57:16;;;;;;;8.83;6.97;;;1.90;99.90;;;;;;6253848;23;20763;-53
2021/12/03 07:59:43;;;;;;;12.83;9.53;;;2.40;99.90;;;;;;6253079;23;20258;-56
2021/12/03 08:02:09;;;;;;;11.55;7.47;;;1.90;99.90;;;;;;6253167;22;20594;-55
2021/12/03 08:04:34;;;;;;;9.63;7.57;;;1.50;99.90;;;;;;6252993;23;20188;-55
2021/12/03 08:07:01;;;;;;;13.00;8.07;;;1.90;99.90;;;;;;6253471;23;20149;-54
2021/12/03 08:09:26;;;;;;;14.20;8.85;;;1.90;99.90;;;;;;6252335;23;20226;-55
2021/12/03 08:11:52;;;;;;;9.10;7.47;;;1.80;99.90;;;;;;6253591;23;20161;-54
2021/12/03 08:14:18;;;;;;;11.53;8.40;;;2.10;99.90;;;;;;6243363;22;20180;-55
2021/12/03 08:16:44;;;;;;;10.20;7.40;;;2.00;99.90;;;;;;6252869;23;20384;-57
2021/12/03 08:19:09;;;;;;;7.93;7.13;;;2.00;99.90;;;;;;6252981;23;20165;-56
2021/12/03 08:21:35;;;;;;;9.77;7.30;;;2.30;99.90;;;;;;6253402;23;20220;-56
2021/12/03 08:24:01;;;;;;;8.20;6.50;;;2.00;99.90;;;;;;6252630;22;20177;-55
2021/12/03 08:26:30;;;;;;;8.83;6.87;;;2.20;99.90;;;;;;6252439;23;20618;-56
2021/12/03 08:28:56;;;;;;;8.77;6.95;;;1.90;99.90;;;;;;6242428;23;20424;-55
2021/12/03 08:31:22;;;;;;;10.30;7.00;;;2.50;99.90;;;;;;6242412;23;20819;-55
2021/12/03 08:33:48;;;;;;;7.17;6.27;;;2.50;99.90;;;;;;6241477;22;20418;-57
2021/12/03 08:36:14;;;;;;;9.70;7.30;;;2.00;99.90;;;;;;6252050;23;20376;-57
2021/12/03 08:38:41;;;;;;;9.77;7.13;;;2.60;99.90;;;;;;6252596;23;20253;-55
2021/12/03 08:41:07;;;;;;;8.50;7.03;;;2.60;99.90;;;;;;6253256;23;20510;-56
2021/12/03 08:43:33;;;;;;;8.10;7.20;;;2.50;99.90;;;;;;6253437;22;20550;-57
2021/12/03 08:46:07;;;;;;;12.40;8.33;;;3.10;99.90;;;;;;6252350;23;20203;-55
2021/12/03 08:48:37;;;;;;;7.75;6.50;;;2.90;99.90;;;;;;6251713;23;20696;-54
2021/12/03 08:51:29;;;;;;;8.75;5.88;;;3.50;99.90;;;;;;6252391;23;20198;-57
2021/12/03 08:56:39;;;;;;;6.85;5.55;;;2.90;99.90;;;;;;6252364;23;20137;-55
2021/12/03 08:59:05;;;;;;;36.03;9.40;;;3.20;99.90;;;;;;6252115;23;20154;-55
2021/12/03 09:01:31;;;;;;;6.47;4.72;;;2.90;99.90;;;;;;6252673;23;20232;-56
2021/12/03 09:03:56;;;;;;;6.00;4.00;;;3.20;99.90;;;;;;6252148;22;20169;-55
2021/12/03 09:06:22;;;;;;;4.70;4.10;;;3.50;99.90;;;;;;6252467;23;20434;-56
2021/12/03 09:08:47;;;;;;;7.43;5.20;;;3.60;99.90;;;;;;6252140;23;20208;-56
2021/12/03 09:11:14;;;;;;;6.57;4.70;;;4.30;99.90;;;;;;6252118;23;20154;-56
2021/12/03 09:13:40;;;;;;;4.90;4.00;;;4.30;99.90;;;;;;6252589;22;20253;-60
2021/12/03 09:16:10;;;;;;;4.32;3.80;;;4.50;99.90;;;;;;6214910;23;20220;-58
2021/12/03 09:18:39;;;;;;;5.38;4.30;;;4.60;99.90;;;;;;6250991;23;20157;-58
2021/12/03 09:26:06;;;;;;;3.17;2.87;;;6.40;94.90;;;;;;6252218;23;20257;-56
2021/12/03 09:28:32;;;;;;;3.33;2.83;;;7.00;93.60;;;;;;6241742;23;20398;-57
2021/12/03 09:30:58;;;;;;;3.20;2.65;;;7.40;92.60;;;;;;6252287;23;20155;-58
2021/12/03 09:33:27;;;;;;;2.30;2.10;;;7.70;91.50;;;;;;6252197;22;20236;-56
2021/12/03 09:35:56;;;;;;;2.47;2.25;;;8.00;92.00;;;;;;6253015;23;20153;-56
2021/12/03 09:38:22;;;;;;;2.65;2.20;;;8.00;90.90;;;;;;6251989;23;20146;-57
2021/12/03 09:40:48;;;;;;;2.80;2.45;;;8.00;90.00;;;;;;6251148;23;20153;-56
2021/12/03 09:43:14;;;;;;;2.60;2.40;;;8.10;88.60;;;;;;6251959;22;20181;-56
2021/12/03 09:45:46;;;;;;;2.60;2.40;;;8.50;87.40;;;;;;6252092;23;20388;-57
2021/12/03 09:48:27;;;;;;;2.85;2.65;;;9.00;87.10;;;;;;6251143;23;20173;-58
2021/12/03 09:50:53;;;;;;;3.25;2.17;;;8.70;84.70;;;;;;6251639;23;20134;-56
2021/12/03 09:53:27;;;;;;;3.73;2.57;;;9.00;85.80;;;;;;6241621;22;20234;-55
2021/12/03 09:55:53;;;;;;;2.65;2.38;;;8.70;85.50;;;;;;6251821;23;20133;-55
2021/12/03 10:01:28;;;;;;;2.25;2.05;;;9.70;83.30;;;;;;6251678;23;20223;-55
2021/12/03 10:05:08;;;;;;;2.70;2.50;;;9.10;82.80;;;;;;6241266;22;20173;-55
2021/12/03 10:12:24;;;;;;;2.50;2.30;;;7.60;89.70;;;;;;6251029;22;20755;-55
2021/12/03 10:17:43;;;;;;;3.10;2.40;;;7.70;90.00;;;;;;6251281;23;20194;-55
2021/12/03 10:20:22;;;;;;;3.45;2.20;;;7.90;88.60;;;;;;6247915;23;20134;-55
2021/12/03 10:32:04;;;;;;;2.80;2.35;;;8.30;86.00;;;;;;6251096;23;20161;-54
2021/12/03 10:36:46;;;;;;;2.58;2.38;;;9.20;86.90;;;;;;6251445;23;20207;-54
2021/12/03 10:47:29;;;;;;;2.67;2.42;;;9.10;81.00;;;;;;6249938;23;20152;-54
2021/12/03 11:06:41;;;;;;;3.35;3.00;;;7.70;89.80;;;;;;6253881;23;20588;-54
2021/12/03 11:28:46;;;;;;;6.68;3.80;;;7.70;89.40;;;;;;6253621;23;20525;-55
2021/12/03 11:43:11;;;;;;;7.20;3.70;;;7.50;91.50;;;;;;6253078;23;20611;-55
2021/12/03 11:48:55;;;;;;;4.28;3.30;;;6.50;92.60;;;;;;6252858;23;20215;-55
2021/12/03 13:39:34;;;;;;;2.60;2.30;;;5.30;95.60;;;;;;6250363;23;20168;-57
2021/12/03 14:34:00;;;;;;;5.43;2.90;;;5.20;95.60;;;;;;6252376;23;20517;-55
2021/12/03 14:43:35;;;;;;;2.80;2.47;;;5.20;96.40;;;;;;6130687;23;20204;-55
2021/12/03 14:56:14;;;;;;;3.37;2.53;;;4.90;97.00;;;;;;6253429;23;20164;-55
2021/12/03 15:06:29;;;;;;;2.72;2.53;;;4.70;97.40;;;;;;6253765;23;20146;-57
2021/12/03 15:25:28;;;;;;;6.93;2.88;;;4.60;98.50;;;;;;6252835;23;20168;-56
2021/12/03 15:52:28;;;;;;;8.23;4.45;;;4.20;99.90;;;;;;6253201;23;20562;-54
2021/12/03 16:13:33;;;;;;;2.92;2.65;;;3.50;99.90;;;;;;6252872;22;20174;-55
2021/12/03 16:18:57;;;;;;;4.10;2.90;;;4.30;99.90;;;;;;6252621;23;20152;-54
2021/12/03 16:46:01;;;;;;;4.20;3.45;;;4.20;99.90;;;;;;6252170;23;20184;-53
2021/12/03 16:49:24;;;;;;;9.95;5.22;;;4.20;99.90;;;;;;6252410;23;20181;-54
2021/12/03 16:53:49;;;;;;;6.88;3.65;;;4.20;99.90;;;;;;6251744;22;20517;-55
2021/12/03 16:56:17;;;;;;;4.35;3.80;;;3.90;99.90;;;;;;6251653;23;20152;-55
2021/12/03 16:58:44;;;;;;;4.80;4.05;;;4.50;99.90;;;;;;6252210;23;20164;-54
2021/12/03 17:01:26;;;;;;;4.15;3.70;;;4.20;99.90;;;;;;6215821;23;20231;-54
2021/12/03 17:14:00;;;;;;;7.40;2.90;;;4.00;99.90;;;;;;6253029;22;20180;-55
2021/12/03 17:16:59;;;;;;;5.38;3.28;;;3.60;99.90;;;;;;6241903;23;20160;-55
2021/12/03 17:25:51;;;;;;;3.10;2.80;;;4.10;99.90;;;;;;6252503;23;20229;-53
2021/12/03 17:56:54;;;;;;;2.95;2.53;;;4.40;98.40;;;;;;6252261;23;20153;-54
2021/12/03 18:01:51;;;;;;;3.70;3.20;;;4.40;98.40;;;;;;6253234;23;20185;-54
2021/12/03 18:04:34;;;;;;;3.67;2.60;;;4.50;98.30;;;;;;6241108;22;20204;-54
2021/12/03 18:07:08;;;;;;;4.18;2.70;;;4.20;97.60;;;;;;6252724;23;20137;-55
2021/12/03 18:13:13;;;;;;;3.28;2.97;;;4.20;97.60;;;;;;6252957;22;20137;-55
2021/12/03 18:15:28;;;;;;;5.20;2.60;;;4.40;97.70;;;;;;6226736;23;20158;-54
2021/12/03 18:18:13;;;;;;;4.15;2.50;;;4.10;97.50;;;;;;6240483;23;20154;-54
2021/12/03 18:45:29;;;;;;;5.47;3.13;;;4.20;96.80;;;;;;6252511;23;20524;-55
2021/12/03 18:50:50;;;;;;;8.77;2.85;;;3.90;97.30;;;;;;6251649;23;20584;-55
2021/12/03 18:55:53;;;;;;;2.97;2.72;;;4.00;97.00;;;;;;6252599;23;20181;-55
2021/12/03 18:58:21;;;;;;;5.43;2.67;;;4.20;96.40;;;;;;6241556;23;20153;-55
2021/12/03 19:00:46;;;;;;;3.25;2.95;;;3.70;95.90;;;;;;6252137;23;20149;-54
2021/12/03 19:03:27;;;;;;;6.77;3.33;;;4.20;96.80;;;;;;6251802;22;20253;-54
2021/12/03 19:08:48;;;;;;;7.15;4.20;;;4.30;97.10;;;;;;6252277;23;20540;-55
2021/12/03 19:11:58;;;;;;;5.82;3.63;;;4.00;97.10;;;;;;6251634;23;20170;-55
2021/12/03 19:14:03;;;;;;;3.95;3.33;;;4.40;97.10;;;;;;6225299;22;20594;-54
2021/12/03 19:16:30;;;;;;;5.10;3.50;;;4.40;96.20;;;;;;6241983;23;20230;-54
2021/12/03 19:18:57;;;;;;;5.90;3.28;;;4.20;96.50;;;;;;6252455;23;20270;-54
2021/12/03 19:21:28;;;;;;;5.20;2.55;;;4.20;96.60;;;;;;6252031;23;20145;-54
2021/12/03 19:23:59;;;;;;;4.22;3.30;;;4.30;96.60;;;;;;6254425;22;20688;-54
2021/12/03 19:26:27;;;;;;;4.72;3.13;;;4.50;95.90;;;;;;6253707;23;20208;-54
2021/12/03 19:28:54;;;;;;;3.28;2.97;;;4.40;95.60;;;;;;6253738;23;20173;-54
2021/12/03 19:31:22;;;;;;;3.88;3.25;;;4.30;95.60;;;;;;6254012;23;20199;-54
2021/12/03 19:33:48;;;;;;;3.33;3.03;;;4.80;96.40;;;;;;6252943;22;20165;-53
2021/12/03 19:36:25;;;;;;;4.47;3.20;;;4.50;96.00;;;;;;6253606;23;20291;-53
2021/12/03 19:38:53;;;;;;;3.65;3.28;;;4.60;95.50;;;;;;6253470;23;20478;-54
2021/12/03 19:41:35;;;;;;;5.63;4.75;;;4.50;95.50;;;;;;6243123;23;20676;-53
2021/12/03 19:44:03;;;;;;;3.70;3.28;;;4.80;95.20;;;;;;6253957;22;20231;-55
2021/12/03 19:46:34;;;;;;;4.70;2.65;;;4.60;95.10;;;;;;6254472;23;20585;-54
2021/12/03 19:49:12;;;;;;;5.80;3.65;;;4.60;95.20;;;;;;6242501;23;20208;-57
2021/12/03 19:52:00;;;;;;;5.10;3.65;;;4.60;95.10;;;;;;6254332;23;20166;-53
2021/12/03 19:54:26;;;;;;;6.25;3.28;;;4.60;95.20;;;;;;6253477;23;20212;-54
2021/12/03 19:56:52;;;;;;;3.70;3.40;;;4.80;95.00;;;;;;6253976;23;20146;-54
2021/12/03 19:59:19;;;;;;;4.20;2.93;;;4.60;95.10;;;;;;6252958;23;20222;-54
2021/12/03 20:01:46;;;;;;;5.50;3.95;;;4.60;95.30;;;;;;6251473;23;20153;-54
2021/12/03 20:04:15;;;;;;;3.70;3.40;;;4.70;95.20;;;;;;6252696;22;20509;-54
2021/12/03 20:06:44;;;;;;;3.70;3.40;;;4.60;95.40;;;;;;6251631;23;20146;-54
2021/12/03 20:09:27;;;;;;;3.72;3.40;;;4.60;95.60;;;;;;6251393;23;20259;-54
2021/12/03 20:11:56;;;;;;;3.17;2.88;;;4.70;95.60;;;;;;6253126;23;20520;-55
2021/12/03 20:14:23;;;;;;;4.60;3.92;;;4.20;95.30;;;;;;6252221;22;20624;-54
2021/12/03 20:21:51;;;;;;;3.92;3.53;;;4.00;95.20;;;;;;6252355;23;20585;-55
2021/12/03 20:30:13;;;;;;;3.80;3.10;;;4.70;95.70;;;;;;6252240;23;20184;-54
2021/12/03 20:32:20;;;;;;;3.08;2.88;;;4.50;95.70;;;;;;6228399;22;20232;-54
2021/12/03 20:37:32;;;;;;;3.58;3.25;;;4.50;95.20;;;;;;6253695;23;20157;-54
2021/12/03 20:40:07;;;;;;;6.20;3.05;;;4.10;94.90;;;;;;6252470;23;20160;-54